Time;durP1;ratioP1;P1;durP2;ratioP2;P2;SDS_P1;SDS_P2;PMS_P1;PMS_P2;Temp;Humidity;BMP_temperature;BMP_pressure;BME280_temperature;BME280_humidity;BME280_pressure;Samples;Min_cycle;Max_cycle;Signal;HPM_P1;HPM_P2
2022/04/12 00:00:20;;;;;;;3.97;2.30;;;6.80;80.30;;;;;;5073464;28;20039;-83
2022/04/12 00:02:46;;;;;;;3.88;2.08;;;6.70;80.50;;;;;;5075939;28;20028;-84
2022/04/12 00:05:12;;;;;;;4.65;2.45;;;6.70;80.60;;;;;;5058890;28;20033;-85
2022/04/12 00:07:41;;;;;;;6.15;2.33;;;6.60;80.80;;;;;;5073177;28;20024;-83
2022/04/12 00:10:08;;;;;;;4.68;2.35;;;6.60;80.90;;;;;;5073334;28;20106;-81
2022/04/12 00:12:35;;;;;;;4.53;2.58;;;6.50;81.00;;;;;;5071403;28;20442;-84
2022/04/12 00:15:01;;;;;;;3.45;2.38;;;6.50;81.20;;;;;;5073934;28;20024;-83
2022/04/12 00:20:11;;;;;;;4.28;2.67;;;6.40;81.50;;;;;;5078907;28;20043;-83
2022/04/12 00:22:39;;;;;;;3.38;2.55;;;6.40;82.40;;;;;;5079279;28;20115;-82
2022/04/12 00:25:07;;;;;;;3.47;2.55;;;6.40;82.20;;;;;;5062129;28;20108;-83
2022/04/12 00:27:33;;;;;;;5.13;3.65;;;6.40;82.50;;;;;;5058216;28;20508;-86
2022/04/12 00:29:59;;;;;;;6.20;2.55;;;6.30;82.50;;;;;;5057237;28;20147;-83
2022/04/12 00:32:24;;;;;;;5.43;2.97;;;6.30;82.60;;;;;;5077939;28;20119;-83
2022/04/12 00:34:50;;;;;;;7.05;2.60;;;6.30;82.80;;;;;;5057710;28;20055;-83
2022/04/12 00:37:15;;;;;;;3.22;2.25;;;6.20;82.60;;;;;;5075650;28;20063;-85
2022/04/12 00:39:40;;;;;;;3.17;2.35;;;6.20;82.50;;;;;;5074163;28;20035;-84
2022/04/12 00:42:06;;;;;;;3.50;2.33;;;6.20;82.80;;;;;;5076410;28;20028;-82
2022/04/12 00:44:32;;;;;;;3.15;2.20;;;6.20;83.40;;;;;;5076411;28;20378;-82
2022/04/12 00:46:57;;;;;;;3.95;2.58;;;6.10;83.40;;;;;;5077335;28;20048;-83
2022/04/12 00:49:26;;;;;;;3.58;2.63;;;6.10;83.70;;;;;;5076435;28;20066;-82
2022/04/12 00:51:52;;;;;;;4.60;2.47;;;6.10;83.90;;;;;;5076515;28;20073;-82
2022/04/12 00:54:20;;;;;;;4.50;2.58;;;6.00;83.90;;;;;;5075655;28;20169;-82
2022/04/12 00:56:51;;;;;;;7.28;2.50;;;6.00;84.20;;;;;;5055352;28;20025;-81
2022/04/12 00:59:16;;;;;;;4.28;2.42;;;6.00;84.40;;;;;;5074458;28;20032;-82
2022/04/12 01:01:42;;;;;;;6.53;3.10;;;5.90;84.80;;;;;;5075270;28;20032;-82
2022/04/12 01:04:08;;;;;;;7.70;2.75;;;5.90;85.00;;;;;;5055649;28;20419;-83
2022/04/12 01:06:33;;;;;;;5.53;2.72;;;5.80;85.10;;;;;;5074571;28;20484;-81
2022/04/12 01:08:59;;;;;;;4.03;2.55;;;5.80;85.10;;;;;;5074597;28;20047;-83
2022/04/12 01:11:26;;;;;;;4.85;2.67;;;5.80;85.20;;;;;;5075211;28;20043;-83
2022/04/12 01:13:52;;;;;;;4.22;2.70;;;5.70;85.30;;;;;;5057119;28;20870;-84
2022/04/12 01:16:17;;;;;;;2.80;1.98;;;5.70;85.50;;;;;;5075515;28;20029;-83
2022/04/12 01:18:43;;;;;;;5.82;2.45;;;5.70;85.70;;;;;;5074715;28;20372;-84
2022/04/12 01:21:08;;;;;;;5.65;2.78;;;5.70;86.10;;;;;;5074576;28;20035;-83
2022/04/12 01:24:00;;;;;;;3.33;2.55;;;5.70;86.50;;;;;;5053063;28;20082;-82
2022/04/12 01:26:26;;;;;;;4.22;2.50;;;5.60;86.90;;;;;;5055130;28;20029;-82
2022/04/12 01:28:51;;;;;;;5.35;2.90;;;5.60;87.20;;;;;;5075670;28;20032;-81
2022/04/12 01:31:17;;;;;;;4.38;3.20;;;5.50;87.30;;;;;;5072981;28;20046;-82
2022/04/12 01:33:42;;;;;;;5.68;3.22;;;5.50;87.40;;;;;;5074152;28;20036;-82
2022/04/12 01:36:08;;;;;;;5.03;2.97;;;5.50;87.50;;;;;;5052952;28;20028;-82
2022/04/12 01:38:33;;;;;;;8.40;3.60;;;5.50;87.60;;;;;;5075599;28;20382;-84
2022/04/12 01:40:59;;;;;;;5.57;3.47;;;5.50;87.90;;;;;;5053041;28;20025;-83
2022/04/12 01:43:24;;;;;;;8.00;3.47;;;5.50;88.00;;;;;;5067930;28;20056;-82
2022/04/12 01:45:50;;;;;;;10.48;3.20;;;5.50;88.40;;;;;;5075083;28;20036;-82
2022/04/12 01:48:15;;;;;;;4.00;2.50;;;5.50;87.80;;;;;;5074962;28;20111;-82
2022/04/12 01:50:41;;;;;;;4.03;2.88;;;5.40;88.10;;;;;;5073516;28;20176;-82
2022/04/12 01:53:06;;;;;;;4.43;2.53;;;5.40;87.90;;;;;;5075060;28;20031;-82
2022/04/12 01:55:32;;;;;;;4.65;2.67;;;5.50;87.60;;;;;;5056424;28;20107;-83
2022/04/12 01:57:57;;;;;;;3.92;2.63;;;5.50;87.60;;;;;;5075067;28;20024;-82
2022/04/12 02:00:23;;;;;;;5.22;2.35;;;5.50;87.30;;;;;;5058529;28;20028;-84
2022/04/12 02:02:49;;;;;;;7.13;2.03;;;5.50;87.00;;;;;;5059101;28;20057;-82
2022/04/12 02:05:14;;;;;;;3.28;1.98;;;5.50;87.40;;;;;;5076593;28;20107;-83
2022/04/12 02:07:43;;;;;;;3.85;2.38;;;5.60;86.80;;;;;;5075230;28;20429;-83
2022/04/12 02:10:11;;;;;;;3.75;2.50;;;5.60;86.30;;;;;;5076841;28;20486;-82
2022/04/12 02:12:36;;;;;;;2.95;2.25;;;5.70;86.60;;;;;;5058582;28;20024;-83
2022/04/12 02:15:03;;;;;;;5.20;2.30;;;5.70;86.40;;;;;;5077499;28;20099;-85
2022/04/12 02:17:29;;;;;;;6.65;2.33;;;5.70;85.90;;;;;;5057242;28;20028;-83
2022/04/12 02:19:54;;;;;;;3.20;1.90;;;5.80;85.80;;;;;;5057336;28;20032;-83
2022/04/12 02:22:20;;;;;;;3.35;2.08;;;5.80;85.50;;;;;;5076414;28;20108;-82
2022/04/12 02:24:45;;;;;;;3.45;1.90;;;5.90;85.10;;;;;;5048234;28;20116;-81
2022/04/12 02:27:11;;;;;;;2.55;1.92;;;5.90;84.80;;;;;;5074371;28;20465;-81
2022/04/12 02:29:36;;;;;;;5.68;2.33;;;5.90;84.50;;;;;;5055659;28;20029;-83
2022/04/12 02:32:02;;;;;;;3.13;2.05;;;6.00;84.70;;;;;;5055126;28;20035;-82
2022/04/12 02:34:28;;;;;;;2.90;2.25;;;6.00;84.30;;;;;;5055659;28;20036;-84
2022/04/12 02:36:53;;;;;;;2.58;1.90;;;6.00;84.40;;;;;;5054663;28;20024;-82
2022/04/12 02:39:19;;;;;;;3.15;1.70;;;6.00;84.40;;;;;;5060840;28;20033;-81
2022/04/12 02:41:44;;;;;;;2.97;2.00;;;6.00;84.50;;;;;;5076837;28;20031;-83
2022/04/12 02:44:10;;;;;;;3.75;1.98;;;6.00;84.30;;;;;;5073203;28;20032;-85
2022/04/12 02:46:35;;;;;;;7.25;2.50;;;6.00;84.70;;;;;;5074544;28;20032;-81
2022/04/12 02:49:01;;;;;;;3.80;2.03;;;6.00;84.90;;;;;;5074400;28;20369;-83
2022/04/12 02:51:26;;;;;;;3.67;2.10;;;6.00;84.60;;;;;;5074305;28;20058;-82
2022/04/12 02:53:52;;;;;;;6.07;2.63;;;6.00;84.30;;;;;;5056529;28;20032;-84
2022/04/12 02:56:17;;;;;;;3.65;2.38;;;6.00;85.20;;;;;;5055782;28;20024;-84
2022/04/12 02:58:42;;;;;;;3.30;2.35;;;6.00;85.20;;;;;;5073445;28;20369;-82
2022/04/12 03:01:08;;;;;;;7.82;2.72;;;6.00;85.30;;;;;;5072356;28;20024;-82
2022/04/12 03:03:34;;;;;;;4.65;2.50;;;5.90;85.30;;;;;;5073058;28;20024;-84
2022/04/12 03:05:59;;;;;;;4.32;2.20;;;5.90;85.60;;;;;;5072894;28;20394;-87
2022/04/12 03:08:25;;;;;;;8.43;3.13;;;5.90;86.00;;;;;;5057663;28;20028;-83
2022/04/12 03:10:50;;;;;;;4.03;2.67;;;5.80;86.70;;;;;;5081513;28;20028;-82
2022/04/12 03:13:16;;;;;;;3.97;2.95;;;5.70;86.70;;;;;;5072683;28;20154;-84
2022/04/12 03:15:41;;;;;;;5.65;2.88;;;5.70;86.70;;;;;;5046670;28;20024;-84
2022/04/12 03:18:07;;;;;;;6.15;3.40;;;5.70;87.10;;;;;;5056124;28;20012;-85
2022/04/12 03:20:33;;;;;;;6.45;3.35;;;5.60;87.10;;;;;;5074272;28;20484;-85
2022/04/12 03:22:59;;;;;;;2.72;2.28;;;5.60;87.10;;;;;;5057158;28;20025;-82
2022/04/12 03:25:24;;;;;;;5.75;2.38;;;5.60;87.70;;;;;;5076485;28;20458;-83
2022/04/12 03:27:50;;;;;;;5.25;3.10;;;5.60;88.10;;;;;;5059714;28;20047;-81
2022/04/12 03:30:15;;;;;;;6.68;1.80;;;5.50;88.20;;;;;;5057177;28;20477;-82
2022/04/12 03:32:42;;;;;;;3.05;2.53;;;5.50;88.40;;;;;;5075376;28;20035;-83
2022/04/12 03:35:07;;;;;;;5.07;2.08;;;5.50;87.90;;;;;;5053935;28;20099;-83
2022/04/12 03:37:33;;;;;;;3.33;2.60;;;5.60;87.90;;;;;;5059374;28;20094;-83
2022/04/12 03:39:58;;;;;;;6.07;2.67;;;5.60;87.70;;;;;;5076355;28;20035;-81
2022/04/12 03:42:24;;;;;;;4.40;2.28;;;5.60;88.30;;;;;;5075742;28;20028;-82
2022/04/12 03:44:49;;;;;;;3.15;2.50;;;5.60;88.40;;;;;;5056716;28;20461;-84
2022/04/12 03:47:15;;;;;;;6.85;2.40;;;5.50;87.80;;;;;;5040829;28;20024;-84
2022/04/12 03:49:41;;;;;;;3.28;2.08;;;5.50;88.20;;;;;;5044331;28;20028;-82
2022/04/12 03:52:07;;;;;;;4.00;2.40;;;5.60;88.20;;;;;;5071928;28;20028;-82
2022/04/12 03:54:32;;;;;;;3.20;2.65;;;5.60;88.20;;;;;;5073957;28;20036;-80
2022/04/12 03:56:58;;;;;;;5.10;2.63;;;5.60;88.00;;;;;;5072126;28;20028;-82
2022/04/12 03:59:24;;;;;;;4.45;2.65;;;5.60;88.30;;;;;;5073107;28;20027;-83
2022/04/12 04:01:49;;;;;;;4.70;2.75;;;5.60;88.20;;;;;;5057302;28;20170;-83
2022/04/12 04:04:15;;;;;;;5.80;2.83;;;5.60;87.90;;;;;;5074301;28;20032;-83
2022/04/12 04:06:41;;;;;;;5.93;2.08;;;5.60;88.20;;;;;;5054088;28;20083;-81
2022/04/12 04:09:07;;;;;;;5.45;2.72;;;5.60;88.10;;;;;;5054210;28;20028;-80
2022/04/12 04:11:33;;;;;;;3.75;2.40;;;5.70;88.00;;;;;;5056080;28;20055;-86
2022/04/12 04:14:00;;;;;;;6.28;2.85;;;5.70;87.80;;;;;;5073445;28;20062;-83
2022/04/12 04:16:26;;;;;;;3.50;2.28;;;5.70;87.70;;;;;;5070866;28;20052;-82
2022/04/12 04:18:52;;;;;;;4.07;2.30;;;5.70;87.90;;;;;;5069140;28;20563;-83
2022/04/12 04:21:17;;;;;;;3.28;2.33;;;5.70;87.80;;;;;;5055424;28;20017;-83
2022/04/12 04:23:43;;;;;;;4.38;2.47;;;5.80;88.00;;;;;;5056638;28;20372;-83
2022/04/12 04:26:08;;;;;;;6.75;3.03;;;5.80;88.00;;;;;;5068870;28;20107;-83
2022/04/12 04:28:34;;;;;;;3.40;2.38;;;5.80;88.20;;;;;;5077166;28;20032;-83
2022/04/12 04:30:59;;;;;;;5.88;3.05;;;5.80;87.90;;;;;;5078889;28;20127;-81
2022/04/12 04:33:25;;;;;;;4.03;2.50;;;5.80;88.20;;;;;;5065271;28;20036;-82
2022/04/12 04:35:51;;;;;;;5.85;2.28;;;5.80;88.10;;;;;;5073478;28;20016;-84
2022/04/12 04:38:19;;;;;;;5.75;3.78;;;5.80;88.10;;;;;;5055357;28;20111;-84
2022/04/12 04:40:44;;;;;;;4.43;2.67;;;5.80;88.20;;;;;;5075319;28;20039;-84
2022/04/12 04:43:10;;;;;;;3.28;2.38;;;5.80;88.30;;;;;;5071914;28;20029;-82
2022/04/12 04:45:35;;;;;;;4.65;3.17;;;5.80;88.30;;;;;;5070341;28;20029;-82
2022/04/12 04:48:03;;;;;;;8.00;3.15;;;5.80;88.50;;;;;;5054717;28;20067;-84
2022/04/12 04:50:31;;;;;;;4.88;2.90;;;5.90;88.70;;;;;;5054408;28;20056;-83
2022/04/12 04:52:58;;;;;;;9.05;3.17;;;5.90;88.60;;;;;;5047745;28;20027;-83
2022/04/12 04:55:24;;;;;;;4.95;3.13;;;5.90;88.60;;;;;;5052128;28;20419;-86
2022/04/12 04:57:53;;;;;;;13.55;3.25;;;5.90;88.10;;;;;;5068021;28;20078;-83
2022/04/12 05:00:19;;;;;;;6.13;3.35;;;6.00;87.90;;;;;;5068322;28;20025;-82
2022/04/12 05:02:50;;;;;;;5.82;2.95;;;6.00;87.80;;;;;;5048179;28;20020;-84
2022/04/12 05:05:16;;;;;;;4.80;2.88;;;6.10;87.90;;;;;;5065746;28;20353;-82
2022/04/12 05:07:47;;;;;;;5.22;2.45;;;6.10;88.00;;;;;;5069560;28;20465;-83
2022/04/12 05:10:13;;;;;;;7.97;2.63;;;6.10;87.80;;;;;;5070513;28;20028;-83
2022/04/12 05:12:39;;;;;;;5.07;2.47;;;6.20;87.60;;;;;;5072164;28;20036;-86
2022/04/12 05:15:05;;;;;;;3.88;2.13;;;6.30;87.80;;;;;;5053651;28;20054;-82
2022/04/12 05:17:31;;;;;;;5.35;2.63;;;6.40;87.50;;;;;;5070554;28;20032;-83
2022/04/12 05:19:57;;;;;;;10.25;2.53;;;6.40;87.50;;;;;;5058481;28;20039;-82
2022/04/12 05:22:23;;;;;;;6.65;3.13;;;6.50;87.60;;;;;;5077996;28;20099;-82
2022/04/12 05:24:49;;;;;;;8.65;2.78;;;6.60;87.60;;;;;;5071414;28;20020;-82
2022/04/12 05:27:15;;;;;;;5.97;2.33;;;6.60;87.40;;;;;;5070463;28;20457;-83
2022/04/12 05:29:41;;;;;;;4.13;2.78;;;6.70;87.10;;;;;;5048128;28;20028;-84
2022/04/12 05:32:09;;;;;;;12.00;2.90;;;6.80;87.10;;;;;;5051216;28;20373;-84
2022/04/12 05:34:36;;;;;;;7.45;2.80;;;6.90;87.20;;;;;;5069508;28;20044;-84
2022/04/12 05:37:01;;;;;;;3.75;2.42;;;7.00;87.00;;;;;;5062726;28;20021;-82
2022/04/12 05:39:27;;;;;;;7.57;2.60;;;7.00;86.40;;;;;;5070642;28;20016;-83
2022/04/12 05:41:52;;;;;;;3.72;2.28;;;7.00;85.70;;;;;;5051966;28;20040;-84
2022/04/12 05:44:18;;;;;;;5.68;2.83;;;7.10;85.70;;;;;;5073784;28;20099;-85
2022/04/12 05:46:43;;;;;;;3.80;2.13;;;7.20;85.30;;;;;;5076302;28;20056;-86
2022/04/12 05:49:09;;;;;;;4.22;2.75;;;7.30;85.00;;;;;;5064600;28;20012;-85
2022/04/12 05:51:34;;;;;;;6.88;2.70;;;7.30;84.60;;;;;;5071362;28;20025;-84
2022/04/12 05:54:00;;;;;;;5.25;2.80;;;7.40;84.60;;;;;;5052924;28;20102;-82
2022/04/12 05:56:25;;;;;;;6.85;3.10;;;7.40;84.30;;;;;;5038640;28;20107;-85
2022/04/12 05:58:51;;;;;;;6.35;2.75;;;7.50;84.20;;;;;;5033909;28;20060;-86
2022/04/12 06:01:16;;;;;;;6.80;2.92;;;7.60;84.00;;;;;;5051655;28;20090;-84
2022/04/12 06:03:42;;;;;;;5.22;3.13;;;7.70;83.70;;;;;;5059415;28;20343;-87
2022/04/12 06:06:07;;;;;;;7.95;2.80;;;7.80;83.60;;;;;;5071074;28;20020;-81
2022/04/12 06:08:33;;;;;;;8.82;3.35;;;7.90;84.10;;;;;;5052605;28;20540;-83
2022/04/12 06:10:58;;;;;;;5.68;2.60;;;7.90;83.60;;;;;;5071482;28;20025;-84
2022/04/12 06:13:24;;;;;;;7.32;2.50;;;7.90;83.00;;;;;;5071193;28;20043;-82
2022/04/12 06:15:49;;;;;;;4.93;2.78;;;8.00;82.60;;;;;;5068898;28;20384;-82
2022/04/12 06:18:15;;;;;;;11.13;2.85;;;8.10;82.20;;;;;;5071171;28;20043;-85
2022/04/12 06:20:40;;;;;;;7.35;2.88;;;8.20;81.70;;;;;;5072750;28;20390;-85
2022/04/12 06:23:06;;;;;;;9.32;2.90;;;8.20;81.80;;;;;;5073511;28;20182;-83
2022/04/12 06:25:31;;;;;;;5.55;3.00;;;8.30;81.00;;;;;;5074470;28;20100;-82
2022/04/12 06:27:57;;;;;;;7.10;3.67;;;8.40;81.40;;;;;;5073486;28;20025;-82
2022/04/12 06:30:27;;;;;;;3.60;2.72;;;8.40;80.60;;;;;;5054479;28;20025;-83
2022/04/12 06:32:54;;;;;;;6.35;3.00;;;8.50;80.40;;;;;;5071378;28;20025;-83
2022/04/12 06:35:20;;;;;;;6.72;3.00;;;8.60;80.90;;;;;;5069876;28;20033;-83
2022/04/12 06:37:47;;;;;;;5.03;3.05;;;8.70;80.00;;;;;;5069194;28;20086;-82
2022/04/12 06:40:15;;;;;;;5.85;2.80;;;8.80;80.80;;;;;;5052660;28;20032;-82
2022/04/12 06:42:42;;;;;;;8.15;2.60;;;8.90;80.00;;;;;;5069954;28;20029;-82
2022/04/12 06:45:09;;;;;;;6.32;3.10;;;8.90;80.00;;;;;;5069834;28;20039;-83
2022/04/12 06:47:35;;;;;;;10.15;2.42;;;9.00;80.30;;;;;;5051365;28;20469;-82
2022/04/12 06:50:01;;;;;;;4.18;2.47;;;9.00;80.50;;;;;;5070387;28;20107;-83
2022/04/12 06:52:26;;;;;;;6.10;2.92;;;9.10;80.60;;;;;;5053653;28;20443;-83
2022/04/12 06:54:52;;;;;;;3.78;2.50;;;9.20;79.40;;;;;;5060663;28;20389;-86
2022/04/12 06:57:18;;;;;;;4.65;2.90;;;9.20;80.30;;;;;;5047104;28;20063;-83
2022/04/12 06:59:44;;;;;;;4.07;2.47;;;9.30;80.60;;;;;;5069280;28;20055;-83
2022/04/12 07:02:10;;;;;;;4.15;2.15;;;9.40;79.10;;;;;;5072661;28;20469;-84
2022/04/12 07:04:36;;;;;;;4.68;2.80;;;9.50;79.10;;;;;;5051501;28;20047;-82
2022/04/12 07:07:02;;;;;;;5.72;2.65;;;9.60;79.60;;;;;;5069394;28;20545;-82
2022/04/12 07:09:29;;;;;;;6.93;2.67;;;9.70;78.90;;;;;;5070446;28;20115;-84
2022/04/12 07:11:59;;;;;;;5.65;2.88;;;9.90;78.60;;;;;;5069904;28;20017;-83
2022/04/12 07:14:26;;;;;;;4.50;2.55;;;10.00;77.80;;;;;;5069117;28;20031;-83
2022/04/12 07:16:52;;;;;;;8.50;2.40;;;10.00;78.20;;;;;;5050446;28;20111;-84
2022/04/12 07:19:17;;;;;;;4.85;2.58;;;10.00;78.00;;;;;;5069854;28;20111;-82
2022/04/12 07:21:43;;;;;;;3.58;2.47;;;10.10;78.00;;;;;;5051462;28;20068;-82
2022/04/12 07:24:09;;;;;;;4.15;2.45;;;10.20;77.80;;;;;;5051411;28;20021;-83
2022/04/12 07:26:36;;;;;;;3.30;2.42;;;10.30;78.40;;;;;;5067781;28;20105;-85
2022/04/12 07:29:02;;;;;;;3.50;2.47;;;10.40;78.10;;;;;;5068829;28;20112;-87
2022/04/12 07:31:28;;;;;;;7.88;2.85;;;10.50;78.20;;;;;;5051406;28;20035;-85
2022/04/12 07:33:54;;;;;;;6.78;3.30;;;10.50;77.60;;;;;;5051538;28;20029;-83
2022/04/12 07:36:20;;;;;;;5.40;2.58;;;10.70;77.90;;;;;;5068577;28;20035;-83
2022/04/12 07:38:48;;;;;;;5.43;2.88;;;10.80;79.90;;;;;;5069600;28;20245;-83
2022/04/12 07:41:14;;;;;;;4.70;3.00;;;11.00;77.70;;;;;;5069785;28;20146;-84
2022/04/12 07:43:39;;;;;;;4.05;2.85;;;11.10;77.80;;;;;;5051602;28;20115;-83
2022/04/12 07:46:04;;;;;;;6.70;2.10;;;11.30;76.50;;;;;;5050146;28;20020;-84
2022/04/12 07:48:31;;;;;;;3.22;2.33;;;11.40;76.30;;;;;;5050942;28;20086;-84
2022/04/12 07:50:56;;;;;;;4.57;2.63;;;11.60;75.20;;;;;;5051304;28;20024;-83
2022/04/12 07:53:22;;;;;;;7.13;3.47;;;11.80;76.30;;;;;;5050518;28;20637;-83
2022/04/12 07:55:48;;;;;;;8.07;2.53;;;12.00;75.80;;;;;;5049358;28;20380;-82
2022/04/12 07:58:17;;;;;;;5.03;2.60;;;12.20;73.90;;;;;;5050902;28;20021;-84
2022/04/12 08:00:42;;;;;;;7.05;2.58;;;12.40;74.00;;;;;;5058753;28;20370;-84
2022/04/12 08:03:08;;;;;;;3.95;2.15;;;12.60;73.70;;;;;;5031001;28;20031;-86
2022/04/12 08:05:37;;;;;;;8.02;2.88;;;12.80;72.60;;;;;;5050020;28;20083;-84
2022/04/12 08:08:02;;;;;;;4.97;2.42;;;12.90;71.60;;;;;;5050676;28;20032;-88
2022/04/12 08:10:28;;;;;;;5.45;2.30;;;13.00;72.00;;;;;;5069616;28;20032;-84
2022/04/12 08:12:54;;;;;;;3.72;2.08;;;13.20;71.20;;;;;;5054826;28;20036;-84
2022/04/12 08:15:20;;;;;;;4.60;2.78;;;13.30;70.50;;;;;;5064088;28;20522;-84
2022/04/12 08:17:45;;;;;;;6.70;1.95;;;13.50;69.80;;;;;;5067828;28;20032;-86
2022/04/12 08:20:13;;;;;;;3.67;2.05;;;13.70;69.80;;;;;;5050485;28;20190;-83
2022/04/12 08:22:40;;;;;;;7.10;2.40;;;13.80;69.10;;;;;;5069046;28;20016;-84
2022/04/12 08:25:07;;;;;;;4.75;2.55;;;13.80;68.80;;;;;;5050811;28;20440;-83
2022/04/12 08:27:32;;;;;;;2.75;1.80;;;14.00;69.20;;;;;;5050237;28;20120;-85
2022/04/12 08:29:58;;;;;;;6.75;2.45;;;14.10;68.80;;;;;;5049691;28;20111;-84
2022/04/12 08:32:24;;;;;;;3.85;2.08;;;14.30;69.60;;;;;;5049885;28;20033;-83
2022/04/12 08:34:49;;;;;;;3.60;2.25;;;14.50;68.90;;;;;;5060826;28;20029;-85
2022/04/12 08:37:15;;;;;;;4.45;2.40;;;14.50;68.40;;;;;;5049917;28;20569;-83
2022/04/12 08:39:41;;;;;;;3.08;2.30;;;14.60;67.80;;;;;;5053318;28;20028;-87
2022/04/12 08:42:07;;;;;;;4.60;2.58;;;14.70;67.50;;;;;;5063040;28;20461;-84
2022/04/12 08:44:36;;;;;;;3.63;2.20;;;14.80;67.60;;;;;;5075710;28;20021;-83
2022/04/12 08:47:04;;;;;;;5.20;2.33;;;14.90;67.10;;;;;;5056409;28;20024;-84
2022/04/12 08:49:35;;;;;;;4.20;2.13;;;15.00;66.50;;;;;;5055433;28;20024;-84
2022/04/12 08:52:01;;;;;;;3.30;2.13;;;15.10;65.50;;;;;;5072845;28;20028;-84
2022/04/12 08:54:28;;;;;;;5.80;2.22;;;15.20;65.40;;;;;;5075841;28;20036;-85
2022/04/12 08:56:54;;;;;;;4.10;2.30;;;15.30;66.90;;;;;;5056124;28;20028;-84
2022/04/12 08:59:19;;;;;;;6.15;2.97;;;15.40;65.40;;;;;;5076230;28;20032;-84
2022/04/12 09:01:46;;;;;;;4.43;2.33;;;15.60;66.90;;;;;;5055710;28;20024;-85
2022/04/12 09:04:12;;;;;;;6.32;2.25;;;15.70;64.70;;;;;;5054432;28;20302;-85
2022/04/12 09:06:52;;;;;;;8.18;2.40;;;15.70;67.10;;;;;;5056355;28;20024;-84
2022/04/12 09:09:26;;;;;;;3.03;1.90;;;15.80;65.30;;;;;;5056950;28;20040;-84
2022/04/12 09:11:57;;;;;;;3.15;2.00;;;15.80;64.20;;;;;;5060475;28;20051;-86
2022/04/12 09:14:23;;;;;;;4.57;1.95;;;16.00;64.40;;;;;;5067665;28;20133;-83
2022/04/12 09:16:51;;;;;;;2.53;1.58;;;16.10;63.30;;;;;;5074384;28;20020;-84
2022/04/12 09:19:37;;;;;;;6.13;2.20;;;16.30;62.60;;;;;;5074384;28;20024;-87
2022/04/12 09:22:14;;;;;;;3.58;1.75;;;16.40;60.70;;;;;;5074333;28;20028;-85
2022/04/12 09:24:51;;;;;;;3.13;2.05;;;16.60;62.90;;;;;;5052881;28;20047;-85
2022/04/12 09:27:21;;;;;;;2.75;1.52;;;16.70;60.60;;;;;;5074201;28;20034;-85
2022/04/12 09:29:53;;;;;;;3.65;1.50;;;16.80;60.10;;;;;;5075522;28;20036;-87
2022/04/12 09:32:24;;;;;;;4.30;1.70;;;16.90;59.60;;;;;;5056016;28;20031;-84
2022/04/12 09:34:51;;;;;;;2.10;1.30;;;17.00;59.00;;;;;;5056688;28;20036;-87
2022/04/12 09:37:18;;;;;;;5.38;1.13;;;17.10;56.20;;;;;;5054630;28;20054;-87
2022/04/12 09:40:01;;;;;;;3.40;1.83;;;17.20;58.10;;;;;;5057873;28;20021;-84
2022/04/12 09:42:47;;;;;;;3.35;1.48;;;17.20;57.60;;;;;;5056144;28;20035;-84
2022/04/12 09:45:17;;;;;;;4.05;1.60;;;17.40;57.90;;;;;;5054660;28;20129;-85
2022/04/12 09:47:47;;;;;;;3.25;1.70;;;17.50;55.40;;;;;;5068000;28;20033;-84
2022/04/12 09:50:13;;;;;;;3.28;1.20;;;17.60;57.20;;;;;;5067848;28;20058;-84
2022/04/12 09:52:50;;;;;;;2.42;1.60;;;17.80;56.20;;;;;;5056334;28;20020;-86
2022/04/12 09:55:37;;;;;;;2.10;1.38;;;17.80;53.70;;;;;;5058213;28;20025;-85
2022/04/12 09:58:04;;;;;;;2.63;1.30;;;17.90;55.50;;;;;;5077006;28;20078;-85
2022/04/12 10:00:30;;;;;;;2.67;1.88;;;17.90;55.20;;;;;;5085150;28;20468;-86
2022/04/12 10:03:02;;;;;;;2.83;1.52;;;18.10;58.40;;;;;;5079018;28;20081;-86
2022/04/12 10:05:28;;;;;;;2.35;1.58;;;18.20;55.00;;;;;;5077998;28;20067;-84
2022/04/12 10:07:58;;;;;;;4.95;1.73;;;18.30;56.10;;;;;;5096010;28;20074;-85
2022/04/12 10:10:24;;;;;;;2.88;1.50;;;18.40;56.40;;;;;;5081512;28;20056;-85
2022/04/12 10:12:50;;;;;;;4.28;1.67;;;18.60;58.30;;;;;;5075832;28;20088;-85
2022/04/12 10:15:16;;;;;;;3.63;1.70;;;18.70;55.70;;;;;;5076220;28;20426;-83
2022/04/12 10:17:42;;;;;;;3.95;1.85;;;18.90;56.30;;;;;;5055117;28;20028;-85
2022/04/12 10:20:10;;;;;;;5.90;1.92;;;19.00;55.70;;;;;;5072982;28;20033;-85
2022/04/12 10:22:36;;;;;;;3.63;1.88;;;19.10;54.80;;;;;;5053920;28;20119;-86
2022/04/12 10:25:02;;;;;;;3.33;1.40;;;19.10;55.90;;;;;;5072833;28;20138;-85
2022/04/12 10:27:31;;;;;;;2.45;1.35;;;19.20;56.10;;;;;;5052510;28;20032;-85
2022/04/12 10:30:21;;;;;;;3.97;2.28;;;19.20;53.90;;;;;;5068029;28;20420;-85
2022/04/12 10:33:16;;;;;;;3.60;1.85;;;19.20;54.10;;;;;;5054673;28;20044;-86
2022/04/12 10:35:44;;;;;;;4.88;2.28;;;19.20;51.80;;;;;;5087438;28;20032;-86
2022/04/12 10:38:18;;;;;;;4.72;2.22;;;19.30;52.70;;;;;;5080353;28;20048;-89
2022/04/12 10:40:46;;;;;;;1.50;1.40;;;19.30;53.50;;;;;;5071450;28;20092;-85
2022/04/12 10:43:13;;;;;;;3.55;1.70;;;19.40;55.20;;;;;;5071037;28;20031;-78
2022/04/12 10:45:46;;;;;;;2.83;1.73;;;19.40;54.70;;;;;;5068712;28;20099;-78
2022/04/12 10:48:19;;;;;;;9.88;2.10;;;19.50;54.70;;;;;;5069803;28;20032;-80
2022/04/12 10:50:47;;;;;;;2.92;1.90;;;19.50;54.30;;;;;;5069228;28;20055;-81
2022/04/12 10:53:12;;;;;;;8.40;2.28;;;19.60;55.00;;;;;;5051509;28;20027;-77
2022/04/12 10:55:42;;;;;;;3.25;1.67;;;19.70;55.50;;;;;;5068500;28;20365;-77
2022/04/12 10:58:33;;;;;;;2.28;1.40;;;19.90;55.40;;;;;;5069732;28;20516;-87
2022/04/12 11:00:59;;;;;;;2.42;1.55;;;20.10;52.60;;;;;;5055996;28;20031;-82
2022/04/12 11:03:45;;;;;;;2.17;1.55;;;20.20;52.20;;;;;;5066230;28;20028;-84
2022/04/12 11:06:21;;;;;;;7.18;2.65;;;20.30;52.00;;;;;;5049696;28;20096;-82
2022/04/12 11:09:06;;;;;;;2.92;1.83;;;20.30;53.30;;;;;;5074629;28;20031;-83
2022/04/12 11:11:40;;;;;;;2.90;1.98;;;20.10;52.90;;;;;;5068740;28;20032;-82
2022/04/12 11:14:21;;;;;;;2.90;1.92;;;20.20;54.80;;;;;;5056058;28;20111;-83
2022/04/12 11:16:56;;;;;;;2.80;1.60;;;20.30;54.50;;;;;;5074314;28;20024;-86
2022/04/12 11:19:22;;;;;;;3.63;1.83;;;20.40;52.10;;;;;;5084979;28;20028;-83
2022/04/12 11:21:51;;;;;;;3.17;1.92;;;20.40;51.70;;;;;;5071185;28;20663;-84
2022/04/12 11:24:21;;;;;;;2.95;1.95;;;20.50;54.10;;;;;;5071044;28;20068;-84
2022/04/12 11:27:06;;;;;;;4.30;2.38;;;20.50;53.20;;;;;;5070387;28;20492;-85
2022/04/12 11:29:32;;;;;;;3.08;2.10;;;20.60;52.50;;;;;;5069912;28;20024;-84
2022/04/12 11:31:59;;;;;;;3.10;1.90;;;20.60;53.60;;;;;;5050994;28;20028;-84
2022/04/12 11:34:27;;;;;;;3.38;1.73;;;20.70;53.30;;;;;;5077252;28;20097;-85
2022/04/12 11:36:54;;;;;;;2.45;1.88;;;20.80;52.50;;;;;;5053952;28;20024;-86
2022/04/12 11:39:22;;;;;;;2.92;1.90;;;20.80;53.00;;;;;;5081465;28;20028;-84
2022/04/12 11:41:48;;;;;;;3.25;1.60;;;20.80;52.60;;;;;;5051673;28;20024;-86
2022/04/12 11:44:14;;;;;;;3.35;2.15;;;20.70;54.10;;;;;;5056236;28;20033;-84
2022/04/12 11:46:40;;;;;;;2.63;1.58;;;20.60;51.40;;;;;;5056518;28;20029;-83
2022/04/12 11:49:12;;;;;;;2.75;1.85;;;20.70;52.90;;;;;;5072834;28;20028;-84
2022/04/12 11:51:47;;;;;;;2.30;1.60;;;20.80;50.80;;;;;;5073454;28;20547;-84
2022/04/12 11:54:22;;;;;;;3.08;1.90;;;20.90;51.30;;;;;;5072660;28;20115;-85
2022/04/12 11:57:12;;;;;;;2.92;1.63;;;21.00;50.80;;;;;;5073697;28;20021;-84
2022/04/12 11:59:51;;;;;;;5.10;2.17;;;21.00;51.60;;;;;;5083855;28;20097;-83
2022/04/12 12:02:22;;;;;;;3.30;1.85;;;21.00;51.60;;;;;;5071010;28;20029;-85
2022/04/12 12:04:53;;;;;;;2.72;1.95;;;21.10;50.80;;;;;;5052753;28;20085;-83
2022/04/12 12:07:19;;;;;;;7.38;2.05;;;21.00;53.20;;;;;;5051111;28;20465;-85
2022/04/12 12:09:59;;;;;;;4.10;1.63;;;21.00;52.20;;;;;;5051017;28;20144;-85
2022/04/12 12:12:32;;;;;;;2.10;1.60;;;21.10;51.20;;;;;;5070306;28;20086;-83
2022/04/12 12:14:57;;;;;;;2.80;1.63;;;21.20;53.20;;;;;;5071893;28;20024;-83
2022/04/12 12:17:25;;;;;;;2.42;1.83;;;21.30;53.10;;;;;;5070031;28;20043;-83
2022/04/12 12:19:50;;;;;;;4.15;2.30;;;21.30;52.10;;;;;;5048101;28;20021;-83
2022/04/12 12:22:17;;;;;;;3.10;2.03;;;21.30;52.00;;;;;;5031817;28;20032;-82
2022/04/12 12:24:55;;;;;;;3.00;2.35;;;21.30;53.10;;;;;;5060975;28;20048;-82
2022/04/12 12:27:32;;;;;;;3.55;2.15;;;21.30;53.20;;;;;;5084814;28;20165;-83
2022/04/12 12:30:10;;;;;;;2.60;1.85;;;21.30;53.10;;;;;;5068932;28;20021;-85
2022/04/12 12:32:38;;;;;;;4.10;2.22;;;21.40;51.80;;;;;;5067855;28;20060;-83
2022/04/12 12:35:12;;;;;;;3.13;2.20;;;21.30;51.60;;;;;;5068952;28;20039;-82
2022/04/12 12:37:39;;;;;;;3.03;1.92;;;21.30;50.20;;;;;;5061262;28;20021;-85
2022/04/12 12:40:18;;;;;;;3.40;2.20;;;21.10;50.90;;;;;;5050421;28;20112;-86
2022/04/12 12:42:44;;;;;;;3.78;2.38;;;21.30;51.20;;;;;;5050652;28;20024;-84
2022/04/12 12:45:12;;;;;;;3.15;2.08;;;21.40;53.10;;;;;;5068316;28;20024;-84
2022/04/12 12:47:40;;;;;;;5.07;2.08;;;21.40;51.00;;;;;;5050045;28;20473;-84
2022/04/12 12:50:14;;;;;;;3.47;2.03;;;21.50;51.10;;;;;;5053126;28;20089;-85
2022/04/12 12:52:41;;;;;;;3.22;1.92;;;21.60;51.20;;;;;;5068686;28;20485;-85
2022/04/12 12:55:09;;;;;;;17.77;2.47;;;21.70;52.70;;;;;;5077065;28;20024;-84
2022/04/12 12:57:42;;;;;;;4.38;1.98;;;21.90;50.30;;;;;;5088155;28;20016;-84